sensor_id;sensor_type;location;lat;lon;timestamp;P1;durP1;ratioP1;P2;durP2;ratioP2
10226;SDS011;15634;48.766;2.272;2022-11-21T00:01:58;20.45;;;3.97;;
10226;SDS011;15634;48.766;2.272;2022-11-21T00:04:25;19.00;;;3.60;;
10226;SDS011;15634;48.766;2.272;2022-11-21T00:06:52;15.13;;;3.85;;
10226;SDS011;15634;48.766;2.272;2022-11-21T00:09:18;20.27;;;4.25;;
10226;SDS011;15634;48.766;2.272;2022-11-21T00:11:45;23.63;;;4.35;;
10226;SDS011;15634;48.766;2.272;2022-11-21T00:14:11;13.45;;;3.88;;
10226;SDS011;15634;48.766;2.272;2022-11-21T00:16:39;17.55;;;4.28;;
10226;SDS011;15634;48.766;2.272;2022-11-21T00:19:06;27.98;;;4.63;;
10226;SDS011;15634;48.766;2.272;2022-11-21T00:21:32;19.23;;;4.43;;
10226;SDS011;15634;48.766;2.272;2022-11-21T00:23:59;16.23;;;4.28;;
10226;SDS011;15634;48.766;2.272;2022-11-21T00:26:25;17.85;;;4.90;;
10226;SDS011;15634;48.766;2.272;2022-11-21T00:28:52;14.60;;;4.30;;
10226;SDS011;15634;48.766;2.272;2022-11-21T00:31:18;18.75;;;3.75;;
10226;SDS011;15634;48.766;2.272;2022-11-21T00:33:47;15.27;;;3.95;;
10226;SDS011;15634;48.766;2.272;2022-11-21T00:36:14;13.35;;;4.55;;
10226;SDS011;15634;48.766;2.272;2022-11-21T00:38:40;15.15;;;3.95;;
10226;SDS011;15634;48.766;2.272;2022-11-21T00:41:07;17.55;;;4.30;;
10226;SDS011;15634;48.766;2.272;2022-11-21T00:43:33;20.27;;;4.22;;
10226;SDS011;15634;48.766;2.272;2022-11-21T00:46:00;21.38;;;4.45;;
10226;SDS011;15634;48.766;2.272;2022-11-21T00:48:27;20.83;;;4.95;;
10226;SDS011;15634;48.766;2.272;2022-11-21T00:50:55;18.25;;;4.22;;
10226;SDS011;15634;48.766;2.272;2022-11-21T00:53:21;16.17;;;4.72;;
10226;SDS011;15634;48.766;2.272;2022-11-21T00:55:48;21.83;;;4.28;;
10226;SDS011;15634;48.766;2.272;2022-11-21T00:58:14;24.17;;;4.45;;
10226;SDS011;15634;48.766;2.272;2022-11-21T01:00:41;18.77;;;5.03;;
10226;SDS011;15634;48.766;2.272;2022-11-21T01:03:07;19.98;;;4.75;;
10226;SDS011;15634;48.766;2.272;2022-11-21T01:05:34;20.08;;;4.95;;
10226;SDS011;15634;48.766;2.272;2022-11-21T01:08:02;23.52;;;4.80;;
10226;SDS011;15634;48.766;2.272;2022-11-21T01:10:29;15.35;;;4.15;;
10226;SDS011;15634;48.766;2.272;2022-11-21T01:12:55;18.92;;;5.20;;
10226;SDS011;15634;48.766;2.272;2022-11-21T01:15:22;18.55;;;4.63;;
10226;SDS011;15634;48.766;2.272;2022-11-21T01:17:48;19.42;;;5.10;;
10226;SDS011;15634;48.766;2.272;2022-11-21T01:20:15;17.33;;;4.55;;
10226;SDS011;15634;48.766;2.272;2022-11-21T01:22:41;19.90;;;4.75;;
10226;SDS011;15634;48.766;2.272;2022-11-21T01:25:09;21.58;;;4.70;;
10226;SDS011;15634;48.766;2.272;2022-11-21T01:27:36;17.42;;;4.70;;
10226;SDS011;15634;48.766;2.272;2022-11-21T01:30:03;20.92;;;4.28;;
10226;SDS011;15634;48.766;2.272;2022-11-21T01:32:30;20.52;;;4.55;;
10226;SDS011;15634;48.766;2.272;2022-11-21T01:34:56;17.73;;;4.65;;
10226;SDS011;15634;48.766;2.272;2022-11-21T01:37:23;20.05;;;4.13;;
10226;SDS011;15634;48.766;2.272;2022-11-21T01:39:50;17.48;;;4.20;;
10226;SDS011;15634;48.766;2.272;2022-11-21T01:42:18;20.00;;;4.30;;
10226;SDS011;15634;48.766;2.272;2022-11-21T01:44:45;27.02;;;4.97;;
10226;SDS011;15634;48.766;2.272;2022-11-21T01:47:14;20.95;;;5.20;;
10226;SDS011;15634;48.766;2.272;2022-11-21T01:49:41;23.33;;;4.65;;
10226;SDS011;15634;48.766;2.272;2022-11-21T01:52:08;19.70;;;4.72;;
10226;SDS011;15634;48.766;2.272;2022-11-21T01:54:38;20.30;;;4.35;;
10226;SDS011;15634;48.766;2.272;2022-11-21T01:57:07;21.13;;;5.07;;
10226;SDS011;15634;48.766;2.272;2022-11-21T01:59:37;16.05;;;4.45;;
10226;SDS011;15634;48.766;2.272;2022-11-21T02:02:05;18.50;;;4.95;;
10226;SDS011;15634;48.766;2.272;2022-11-21T02:04:33;21.42;;;5.22;;
10226;SDS011;15634;48.766;2.272;2022-11-21T02:07:01;13.82;;;4.55;;
10226;SDS011;15634;48.766;2.272;2022-11-21T02:09:30;18.60;;;4.60;;
10226;SDS011;15634;48.766;2.272;2022-11-21T02:11:59;20.30;;;4.90;;
10226;SDS011;15634;48.766;2.272;2022-11-21T02:14:27;13.07;;;3.92;;
10226;SDS011;15634;48.766;2.272;2022-11-21T02:16:56;23.33;;;5.38;;
10226;SDS011;15634;48.766;2.272;2022-11-21T02:19:26;22.95;;;4.78;;
10226;SDS011;15634;48.766;2.272;2022-11-21T02:21:57;21.85;;;5.07;;
10226;SDS011;15634;48.766;2.272;2022-11-21T02:24:28;20.30;;;4.90;;
10226;SDS011;15634;48.766;2.272;2022-11-21T02:26:57;22.50;;;4.30;;
10226;SDS011;15634;48.766;2.272;2022-11-21T02:29:25;23.67;;;5.07;;
10226;SDS011;15634;48.766;2.272;2022-11-21T02:31:52;22.75;;;4.70;;
10226;SDS011;15634;48.766;2.272;2022-11-21T02:34:18;22.42;;;5.22;;
10226;SDS011;15634;48.766;2.272;2022-11-21T02:36:45;25.42;;;5.00;;
10226;SDS011;15634;48.766;2.272;2022-11-21T02:39:14;19.73;;;5.07;;
10226;SDS011;15634;48.766;2.272;2022-11-21T02:41:43;24.13;;;5.75;;
10226;SDS011;15634;48.766;2.272;2022-11-21T02:44:19;29.55;;;5.57;;
10226;SDS011;15634;48.766;2.272;2022-11-21T02:46:49;19.83;;;4.85;;
10226;SDS011;15634;48.766;2.272;2022-11-21T02:49:18;20.65;;;4.90;;
10226;SDS011;15634;48.766;2.272;2022-11-21T02:51:49;21.48;;;4.75;;
10226;SDS011;15634;48.766;2.272;2022-11-21T02:54:16;15.73;;;4.97;;
10226;SDS011;15634;48.766;2.272;2022-11-21T02:56:43;24.23;;;5.10;;
10226;SDS011;15634;48.766;2.272;2022-11-21T02:59:09;23.25;;;5.55;;
10226;SDS011;15634;48.766;2.272;2022-11-21T03:01:37;20.63;;;4.70;;
10226;SDS011;15634;48.766;2.272;2022-11-21T03:04:04;21.13;;;5.22;;
10226;SDS011;15634;48.766;2.272;2022-11-21T03:06:30;20.20;;;5.57;;
10226;SDS011;15634;48.766;2.272;2022-11-21T03:08:57;22.30;;;5.93;;
10226;SDS011;15634;48.766;2.272;2022-11-21T03:11:23;23.85;;;5.55;;
10226;SDS011;15634;48.766;2.272;2022-11-21T03:13:50;21.60;;;5.45;;
10226;SDS011;15634;48.766;2.272;2022-11-21T03:16:16;24.35;;;6.07;;
10226;SDS011;15634;48.766;2.272;2022-11-21T03:18:44;24.90;;;5.47;;
10226;SDS011;15634;48.766;2.272;2022-11-21T03:21:11;26.13;;;5.63;;
10226;SDS011;15634;48.766;2.272;2022-11-21T03:23:37;23.77;;;5.65;;
10226;SDS011;15634;48.766;2.272;2022-11-21T03:26:04;19.05;;;5.40;;
10226;SDS011;15634;48.766;2.272;2022-11-21T03:28:30;21.15;;;5.80;;
10226;SDS011;15634;48.766;2.272;2022-11-21T03:30:57;29.90;;;5.88;;
10226;SDS011;15634;48.766;2.272;2022-11-21T03:33:24;19.13;;;5.18;;
10226;SDS011;15634;48.766;2.272;2022-11-21T03:35:52;23.30;;;6.18;;
10226;SDS011;15634;48.766;2.272;2022-11-21T03:38:19;23.02;;;5.13;;
10226;SDS011;15634;48.766;2.272;2022-11-21T03:40:46;23.40;;;6.35;;
10226;SDS011;15634;48.766;2.272;2022-11-21T03:43:13;22.30;;;6.20;;
10226;SDS011;15634;48.766;2.272;2022-11-21T03:45:39;23.73;;;5.55;;
10226;SDS011;15634;48.766;2.272;2022-11-21T03:48:06;26.95;;;5.05;;
10226;SDS011;15634;48.766;2.272;2022-11-21T03:50:32;19.95;;;5.15;;
10226;SDS011;15634;48.766;2.272;2022-11-21T03:53:00;24.02;;;5.07;;
10226;SDS011;15634;48.766;2.272;2022-11-21T03:55:27;24.77;;;5.75;;
10226;SDS011;15634;48.766;2.272;2022-11-21T03:57:53;23.33;;;5.47;;
10226;SDS011;15634;48.766;2.272;2022-11-21T04:00:20;20.05;;;5.55;;
10226;SDS011;15634;48.766;2.272;2022-11-21T04:02:46;24.65;;;5.70;;
10226;SDS011;15634;48.766;2.272;2022-11-21T04:05:13;24.35;;;5.57;;
10226;SDS011;15634;48.766;2.272;2022-11-21T04:07:40;25.63;;;6.00;;
10226;SDS011;15634;48.766;2.272;2022-11-21T04:10:08;30.17;;;5.75;;
10226;SDS011;15634;48.766;2.272;2022-11-21T04:12:35;23.27;;;5.18;;
10226;SDS011;15634;48.766;2.272;2022-11-21T04:15:02;23.23;;;4.60;;
10226;SDS011;15634;48.766;2.272;2022-11-21T04:17:28;27.92;;;5.60;;
10226;SDS011;15634;48.766;2.272;2022-11-21T04:19:55;25.67;;;5.55;;
10226;SDS011;15634;48.766;2.272;2022-11-21T04:22:22;31.90;;;5.45;;
10226;SDS011;15634;48.766;2.272;2022-11-21T04:24:49;25.15;;;5.60;;
10226;SDS011;15634;48.766;2.272;2022-11-21T04:27:17;23.73;;;5.22;;
10226;SDS011;15634;48.766;2.272;2022-11-21T04:29:43;20.17;;;4.97;;
10226;SDS011;15634;48.766;2.272;2022-11-21T04:32:10;22.98;;;5.22;;
10226;SDS011;15634;48.766;2.272;2022-11-21T04:34:36;24.05;;;5.40;;
10226;SDS011;15634;48.766;2.272;2022-11-21T04:37:03;27.88;;;5.90;;
10226;SDS011;15634;48.766;2.272;2022-11-21T04:39:30;22.42;;;6.18;;
10226;SDS011;15634;48.766;2.272;2022-11-21T04:41:56;23.35;;;5.60;;
10226;SDS011;15634;48.766;2.272;2022-11-21T04:44:24;26.75;;;5.32;;
10226;SDS011;15634;48.766;2.272;2022-11-21T04:46:52;29.25;;;6.18;;
10226;SDS011;15634;48.766;2.272;2022-11-21T04:49:19;30.58;;;6.03;;
10226;SDS011;15634;48.766;2.272;2022-11-21T04:51:45;19.83;;;6.20;;
10226;SDS011;15634;48.766;2.272;2022-11-21T04:54:12;25.33;;;5.28;;
10226;SDS011;15634;48.766;2.272;2022-11-21T04:56:38;30.13;;;6.25;;
10226;SDS011;15634;48.766;2.272;2022-11-21T04:59:05;24.90;;;6.28;;
10226;SDS011;15634;48.766;2.272;2022-11-21T05:01:33;31.10;;;6.38;;
10226;SDS011;15634;48.766;2.272;2022-11-21T05:03:59;28.05;;;5.72;;
10226;SDS011;15634;48.766;2.272;2022-11-21T05:06:26;25.23;;;6.22;;
10226;SDS011;15634;48.766;2.272;2022-11-21T05:08:52;27.92;;;6.07;;
10226;SDS011;15634;48.766;2.272;2022-11-21T05:11:19;17.85;;;5.50;;
10226;SDS011;15634;48.766;2.272;2022-11-21T05:14:03;27.42;;;5.70;;
10226;SDS011;15634;48.766;2.272;2022-11-21T05:16:32;30.90;;;5.43;;
10226;SDS011;15634;48.766;2.272;2022-11-21T05:18:59;21.23;;;5.82;;
10226;SDS011;15634;48.766;2.272;2022-11-21T05:21:25;21.60;;;5.85;;
10226;SDS011;15634;48.766;2.272;2022-11-21T05:23:52;26.23;;;6.00;;
10226;SDS011;15634;48.766;2.272;2022-11-21T05:26:18;26.23;;;5.45;;
10226;SDS011;15634;48.766;2.272;2022-11-21T05:28:45;31.23;;;6.35;;
10226;SDS011;15634;48.766;2.272;2022-11-21T05:31:12;26.30;;;6.43;;
10226;SDS011;15634;48.766;2.272;2022-11-21T05:33:40;30.77;;;7.28;;
10226;SDS011;15634;48.766;2.272;2022-11-21T05:36:07;23.25;;;6.93;;
10226;SDS011;15634;48.766;2.272;2022-11-21T05:38:33;24.38;;;6.75;;
10226;SDS011;15634;48.766;2.272;2022-11-21T05:41:00;27.65;;;5.82;;
10226;SDS011;15634;48.766;2.272;2022-11-21T05:43:26;22.83;;;6.25;;
10226;SDS011;15634;48.766;2.272;2022-11-21T05:46:10;29.02;;;6.40;;
10226;SDS011;15634;48.766;2.272;2022-11-21T05:48:37;31.65;;;6.80;;
10226;SDS011;15634;48.766;2.272;2022-11-21T05:51:05;26.15;;;6.20;;
10226;SDS011;15634;48.766;2.272;2022-11-21T05:53:32;28.20;;;6.97;;
10226;SDS011;15634;48.766;2.272;2022-11-21T05:56:00;23.63;;;6.22;;
10226;SDS011;15634;48.766;2.272;2022-11-21T05:58:27;27.88;;;6.78;;
10226;SDS011;15634;48.766;2.272;2022-11-21T06:00:54;23.85;;;6.57;;
10226;SDS011;15634;48.766;2.272;2022-11-21T06:03:21;21.70;;;7.03;;
10226;SDS011;15634;48.766;2.272;2022-11-21T06:05:58;27.10;;;6.93;;
10226;SDS011;15634;48.766;2.272;2022-11-21T06:08:27;28.42;;;7.85;;
10226;SDS011;15634;48.766;2.272;2022-11-21T06:10:56;30.63;;;6.28;;
10226;SDS011;15634;48.766;2.272;2022-11-21T06:13:22;26.17;;;6.90;;
10226;SDS011;15634;48.766;2.272;2022-11-21T06:15:50;35.17;;;7.40;;
10226;SDS011;15634;48.766;2.272;2022-11-21T06:18:17;31.88;;;7.13;;
10226;SDS011;15634;48.766;2.272;2022-11-21T06:20:44;29.13;;;7.22;;
10226;SDS011;15634;48.766;2.272;2022-11-21T06:23:11;29.35;;;7.40;;
10226;SDS011;15634;48.766;2.272;2022-11-21T06:25:39;24.70;;;7.20;;
10226;SDS011;15634;48.766;2.272;2022-11-21T06:28:05;28.77;;;7.03;;
10226;SDS011;15634;48.766;2.272;2022-11-21T06:30:32;28.75;;;7.88;;
10226;SDS011;15634;48.766;2.272;2022-11-21T06:32:59;23.33;;;6.90;;
10226;SDS011;15634;48.766;2.272;2022-11-21T06:35:25;29.73;;;7.85;;
10226;SDS011;15634;48.766;2.272;2022-11-21T06:37:52;35.42;;;7.75;;
10226;SDS011;15634;48.766;2.272;2022-11-21T06:40:18;23.25;;;8.05;;
10226;SDS011;15634;48.766;2.272;2022-11-21T06:42:46;29.70;;;8.60;;
10226;SDS011;15634;48.766;2.272;2022-11-21T06:45:13;33.60;;;8.30;;
10226;SDS011;15634;48.766;2.272;2022-11-21T06:47:39;24.67;;;8.23;;
10226;SDS011;15634;48.766;2.272;2022-11-21T06:50:07;34.78;;;8.25;;
10226;SDS011;15634;48.766;2.272;2022-11-21T06:52:34;21.80;;;8.35;;
10226;SDS011;15634;48.766;2.272;2022-11-21T06:55:00;32.08;;;8.70;;
10226;SDS011;15634;48.766;2.272;2022-11-21T06:57:27;30.25;;;8.15;;
10226;SDS011;15634;48.766;2.272;2022-11-21T06:59:55;31.48;;;8.57;;
10226;SDS011;15634;48.766;2.272;2022-11-21T07:02:21;32.22;;;8.65;;
10226;SDS011;15634;48.766;2.272;2022-11-21T07:04:48;22.40;;;7.97;;
10226;SDS011;15634;48.766;2.272;2022-11-21T07:07:15;25.70;;;8.52;;
10226;SDS011;15634;48.766;2.272;2022-11-21T07:09:41;31.13;;;9.18;;
10226;SDS011;15634;48.766;2.272;2022-11-21T07:12:09;25.58;;;8.45;;
10226;SDS011;15634;48.766;2.272;2022-11-21T07:14:53;27.42;;;7.47;;
10226;SDS011;15634;48.766;2.272;2022-11-21T07:17:21;20.08;;;6.50;;
10226;SDS011;15634;48.766;2.272;2022-11-21T07:19:47;29.50;;;6.95;;
10226;SDS011;15634;48.766;2.272;2022-11-21T07:22:14;27.83;;;7.05;;
10226;SDS011;15634;48.766;2.272;2022-11-21T07:24:40;26.38;;;7.35;;
10226;SDS011;15634;48.766;2.272;2022-11-21T07:27:07;31.17;;;8.02;;
10226;SDS011;15634;48.766;2.272;2022-11-21T07:29:34;24.70;;;8.32;;
10226;SDS011;15634;48.766;2.272;2022-11-21T07:32:00;26.60;;;8.40;;
10226;SDS011;15634;48.766;2.272;2022-11-21T07:34:28;24.15;;;7.50;;
10226;SDS011;15634;48.766;2.272;2022-11-21T07:36:54;20.17;;;8.20;;
10226;SDS011;15634;48.766;2.272;2022-11-21T07:39:21;30.63;;;9.07;;
10226;SDS011;15634;48.766;2.272;2022-11-21T07:41:48;24.33;;;8.57;;
10226;SDS011;15634;48.766;2.272;2022-11-21T07:44:14;26.95;;;8.68;;
10226;SDS011;15634;48.766;2.272;2022-11-21T07:46:41;24.30;;;9.05;;
10226;SDS011;15634;48.766;2.272;2022-11-21T07:49:07;27.30;;;9.35;;
10226;SDS011;15634;48.766;2.272;2022-11-21T07:51:35;28.35;;;11.25;;
10226;SDS011;15634;48.766;2.272;2022-11-21T07:54:02;29.95;;;10.23;;
10226;SDS011;15634;48.766;2.272;2022-11-21T07:56:28;32.28;;;10.93;;
10226;SDS011;15634;48.766;2.272;2022-11-21T07:58:55;31.95;;;11.00;;
10226;SDS011;15634;48.766;2.272;2022-11-21T08:01:21;33.92;;;10.98;;
10226;SDS011;15634;48.766;2.272;2022-11-21T08:03:48;30.23;;;10.27;;
10226;SDS011;15634;48.766;2.272;2022-11-21T08:06:15;33.22;;;10.90;;
10226;SDS011;15634;48.766;2.272;2022-11-21T08:08:42;30.90;;;10.20;;
10226;SDS011;15634;48.766;2.272;2022-11-21T08:11:09;29.50;;;10.68;;
10226;SDS011;15634;48.766;2.272;2022-11-21T08:13:36;32.00;;;11.38;;
10226;SDS011;15634;48.766;2.272;2022-11-21T08:16:02;35.38;;;10.98;;
10226;SDS011;15634;48.766;2.272;2022-11-21T08:18:29;31.85;;;10.32;;
10226;SDS011;15634;48.766;2.272;2022-11-21T08:20:56;27.00;;;9.68;;
10226;SDS011;15634;48.766;2.272;2022-11-21T08:23:25;30.75;;;9.77;;
10226;SDS011;15634;48.766;2.272;2022-11-21T08:25:53;26.20;;;9.55;;
10226;SDS011;15634;48.766;2.272;2022-11-21T08:28:20;29.40;;;9.35;;
10226;SDS011;15634;48.766;2.272;2022-11-21T08:30:46;29.23;;;9.82;;
10226;SDS011;15634;48.766;2.272;2022-11-21T08:33:13;27.85;;;9.38;;
10226;SDS011;15634;48.766;2.272;2022-11-21T08:35:39;28.85;;;10.68;;
10226;SDS011;15634;48.766;2.272;2022-11-21T08:38:07;28.60;;;10.32;;
10226;SDS011;15634;48.766;2.272;2022-11-21T08:40:34;30.02;;;10.88;;
10226;SDS011;15634;48.766;2.272;2022-11-21T08:43:03;24.60;;;10.18;;
10226;SDS011;15634;48.766;2.272;2022-11-21T08:45:31;25.15;;;10.18;;
10226;SDS011;15634;48.766;2.272;2022-11-21T08:47:58;29.00;;;10.23;;
10226;SDS011;15634;48.766;2.272;2022-11-21T08:50:25;19.73;;;9.82;;
10226;SDS011;15634;48.766;2.272;2022-11-21T08:52:52;19.67;;;8.90;;
10226;SDS011;15634;48.766;2.272;2022-11-21T08:55:18;21.98;;;9.35;;
10226;SDS011;15634;48.766;2.272;2022-11-21T08:57:47;23.98;;;8.73;;
10226;SDS011;15634;48.766;2.272;2022-11-21T09:02:43;19.58;;;8.15;;
10226;SDS011;15634;48.766;2.272;2022-11-21T09:05:09;19.10;;;7.15;;
10226;SDS011;15634;48.766;2.272;2022-11-21T09:07:36;24.38;;;8.63;;
10226;SDS011;15634;48.766;2.272;2022-11-21T09:10:03;22.65;;;8.45;;
10226;SDS011;15634;48.766;2.272;2022-11-21T09:12:30;21.30;;;7.65;;
10226;SDS011;15634;48.766;2.272;2022-11-21T09:14:56;16.95;;;6.85;;
10226;SDS011;15634;48.766;2.272;2022-11-21T09:17:42;18.08;;;6.97;;
10226;SDS011;15634;48.766;2.272;2022-11-21T09:20:25;14.68;;;6.68;;
10226;SDS011;15634;48.766;2.272;2022-11-21T09:22:52;19.00;;;6.88;;
10226;SDS011;15634;48.766;2.272;2022-11-21T09:25:18;20.83;;;6.43;;
10226;SDS011;15634;48.766;2.272;2022-11-21T09:27:45;17.92;;;6.78;;
10226;SDS011;15634;48.766;2.272;2022-11-21T09:30:12;16.88;;;6.63;;
10226;SDS011;15634;48.766;2.272;2022-11-21T09:32:39;17.95;;;6.20;;
10226;SDS011;15634;48.766;2.272;2022-11-21T09:35:07;17.15;;;6.20;;
10226;SDS011;15634;48.766;2.272;2022-11-21T09:37:35;16.95;;;5.93;;
10226;SDS011;15634;48.766;2.272;2022-11-21T09:40:02;17.38;;;6.63;;
10226;SDS011;15634;48.766;2.272;2022-11-21T09:42:41;20.10;;;6.20;;
10226;SDS011;15634;48.766;2.272;2022-11-21T09:45:18;15.80;;;6.40;;
10226;SDS011;15634;48.766;2.272;2022-11-21T09:47:48;20.25;;;6.22;;
10226;SDS011;15634;48.766;2.272;2022-11-21T09:50:20;17.00;;;7.25;;
10226;SDS011;15634;48.766;2.272;2022-11-21T09:52:52;12.27;;;5.65;;
10226;SDS011;15634;48.766;2.272;2022-11-21T09:55:22;18.65;;;6.68;;
10226;SDS011;15634;48.766;2.272;2022-11-21T09:57:51;22.80;;;6.90;;
10226;SDS011;15634;48.766;2.272;2022-11-21T10:00:18;17.65;;;6.47;;
10226;SDS011;15634;48.766;2.272;2022-11-21T10:02:46;11.13;;;6.15;;
10226;SDS011;15634;48.766;2.272;2022-11-21T10:05:13;24.10;;;6.40;;
10226;SDS011;15634;48.766;2.272;2022-11-21T10:07:42;18.73;;;6.70;;
10226;SDS011;15634;48.766;2.272;2022-11-21T10:10:13;18.35;;;6.75;;
10226;SDS011;15634;48.766;2.272;2022-11-21T10:12:51;17.98;;;6.90;;
10226;SDS011;15634;48.766;2.272;2022-11-21T10:15:35;19.50;;;7.03;;
10226;SDS011;15634;48.766;2.272;2022-11-21T10:18:12;17.13;;;5.63;;
10226;SDS011;15634;48.766;2.272;2022-11-21T10:20:49;22.38;;;6.45;;
10226;SDS011;15634;48.766;2.272;2022-11-21T10:26:13;27.85;;;6.93;;
10226;SDS011;15634;48.766;2.272;2022-11-21T10:28:43;21.00;;;6.15;;
10226;SDS011;15634;48.766;2.272;2022-11-21T10:31:14;21.70;;;5.95;;
10226;SDS011;15634;48.766;2.272;2022-11-21T10:33:40;22.30;;;6.00;;
10226;SDS011;15634;48.766;2.272;2022-11-21T10:36:11;19.63;;;5.88;;
10226;SDS011;15634;48.766;2.272;2022-11-21T10:38:42;22.90;;;5.38;;
10226;SDS011;15634;48.766;2.272;2022-11-21T10:41:11;22.58;;;6.03;;
10226;SDS011;15634;48.766;2.272;2022-11-21T10:43:41;17.45;;;5.72;;
10226;SDS011;15634;48.766;2.272;2022-11-21T10:46:28;18.20;;;5.00;;
10226;SDS011;15634;48.766;2.272;2022-11-21T10:48:55;16.73;;;5.30;;
10226;SDS011;15634;48.766;2.272;2022-11-21T10:51:26;15.07;;;4.82;;
10226;SDS011;15634;48.766;2.272;2022-11-21T10:54:03;18.55;;;5.97;;
10226;SDS011;15634;48.766;2.272;2022-11-21T10:56:48;21.38;;;5.45;;
10226;SDS011;15634;48.766;2.272;2022-11-21T10:59:19;17.60;;;5.57;;
10226;SDS011;15634;48.766;2.272;2022-11-21T11:01:54;17.13;;;5.15;;
10226;SDS011;15634;48.766;2.272;2022-11-21T11:04:24;19.85;;;5.53;;
10226;SDS011;15634;48.766;2.272;2022-11-21T11:06:52;17.98;;;5.25;;
10226;SDS011;15634;48.766;2.272;2022-11-21T11:09:25;21.17;;;5.63;;
10226;SDS011;15634;48.766;2.272;2022-11-21T11:12:15;17.83;;;5.53;;
10226;SDS011;15634;48.766;2.272;2022-11-21T11:14:48;22.07;;;5.33;;
10226;SDS011;15634;48.766;2.272;2022-11-21T11:17:15;18.35;;;5.55;;
10226;SDS011;15634;48.766;2.272;2022-11-21T11:19:49;17.45;;;5.03;;
10226;SDS011;15634;48.766;2.272;2022-11-21T11:22:25;20.98;;;5.35;;
10226;SDS011;15634;48.766;2.272;2022-11-21T11:24:54;22.02;;;5.95;;
10226;SDS011;15634;48.766;2.272;2022-11-21T11:27:25;21.50;;;6.63;;
10226;SDS011;15634;48.766;2.272;2022-11-21T11:29:52;17.42;;;5.35;;
10226;SDS011;15634;48.766;2.272;2022-11-21T11:32:19;17.75;;;5.00;;
10226;SDS011;15634;48.766;2.272;2022-11-21T11:34:48;20.70;;;5.22;;
10226;SDS011;15634;48.766;2.272;2022-11-21T11:37:25;17.70;;;4.90;;
10226;SDS011;15634;48.766;2.272;2022-11-21T11:40:02;15.57;;;5.03;;
10226;SDS011;15634;48.766;2.272;2022-11-21T11:42:43;17.92;;;4.80;;
10226;SDS011;15634;48.766;2.272;2022-11-21T11:45:40;17.48;;;4.80;;
10226;SDS011;15634;48.766;2.272;2022-11-21T11:48:32;23.13;;;5.43;;
10226;SDS011;15634;48.766;2.272;2022-11-21T11:51:03;18.17;;;4.75;;
10226;SDS011;15634;48.766;2.272;2022-11-21T11:53:36;22.93;;;5.30;;
10226;SDS011;15634;48.766;2.272;2022-11-21T11:56:07;11.43;;;4.50;;
10226;SDS011;15634;48.766;2.272;2022-11-21T11:58:39;16.85;;;4.72;;
10226;SDS011;15634;48.766;2.272;2022-11-21T12:01:09;17.67;;;4.47;;
10226;SDS011;15634;48.766;2.272;2022-11-21T12:03:38;18.20;;;5.07;;
10226;SDS011;15634;48.766;2.272;2022-11-21T12:06:09;24.45;;;5.18;;
10226;SDS011;15634;48.766;2.272;2022-11-21T12:08:39;19.98;;;5.10;;
10226;SDS011;15634;48.766;2.272;2022-11-21T12:11:19;20.35;;;4.80;;
10226;SDS011;15634;48.766;2.272;2022-11-21T12:14:10;11.00;;;4.03;;
10226;SDS011;15634;48.766;2.272;2022-11-21T12:17:11;15.57;;;4.20;;
10226;SDS011;15634;48.766;2.272;2022-11-21T12:19:40;15.70;;;4.95;;
10226;SDS011;15634;48.766;2.272;2022-11-21T12:22:08;17.98;;;4.95;;
10226;SDS011;15634;48.766;2.272;2022-11-21T12:24:35;18.42;;;4.78;;
10226;SDS011;15634;48.766;2.272;2022-11-21T12:27:04;18.17;;;4.53;;
10226;SDS011;15634;48.766;2.272;2022-11-21T12:29:45;15.88;;;4.55;;
10226;SDS011;15634;48.766;2.272;2022-11-21T12:32:23;13.20;;;4.30;;
10226;SDS011;15634;48.766;2.272;2022-11-21T12:35:01;16.17;;;4.20;;
10226;SDS011;15634;48.766;2.272;2022-11-21T12:37:38;17.17;;;4.88;;
10226;SDS011;15634;48.766;2.272;2022-11-21T12:40:12;11.30;;;3.97;;
10226;SDS011;15634;48.766;2.272;2022-11-21T12:42:59;14.43;;;4.43;;
10226;SDS011;15634;48.766;2.272;2022-11-21T12:45:35;14.90;;;4.57;;
10226;SDS011;15634;48.766;2.272;2022-11-21T12:48:16;16.42;;;4.40;;
10226;SDS011;15634;48.766;2.272;2022-11-21T12:51:12;21.98;;;4.75;;
10226;SDS011;15634;48.766;2.272;2022-11-21T12:54:08;17.15;;;4.50;;
10226;SDS011;15634;48.766;2.272;2022-11-21T12:56:59;12.52;;;4.25;;
10226;SDS011;15634;48.766;2.272;2022-11-21T12:59:32;13.30;;;4.40;;
10226;SDS011;15634;48.766;2.272;2022-11-21T13:02:05;14.27;;;3.80;;
10226;SDS011;15634;48.766;2.272;2022-11-21T13:04:42;19.50;;;4.80;;
10226;SDS011;15634;48.766;2.272;2022-11-21T13:07:11;14.95;;;4.47;;
10226;SDS011;15634;48.766;2.272;2022-11-21T13:09:39;16.35;;;3.85;;
10226;SDS011;15634;48.766;2.272;2022-11-21T13:12:10;14.68;;;4.40;;
10226;SDS011;15634;48.766;2.272;2022-11-21T13:14:43;20.52;;;4.38;;
10226;SDS011;15634;48.766;2.272;2022-11-21T13:17:13;11.38;;;3.80;;
10226;SDS011;15634;48.766;2.272;2022-11-21T13:19:49;7.95;;;3.35;;
10226;SDS011;15634;48.766;2.272;2022-11-21T13:25:13;11.52;;;3.90;;
10226;SDS011;15634;48.766;2.272;2022-11-21T13:31:04;14.73;;;4.32;;
10226;SDS011;15634;48.766;2.272;2022-11-21T13:33:54;9.90;;;3.90;;
10226;SDS011;15634;48.766;2.272;2022-11-21T13:41:59;16.15;;;4.20;;
10226;SDS011;15634;48.766;2.272;2022-11-21T13:44:44;11.73;;;4.28;;
10226;SDS011;15634;48.766;2.272;2022-11-21T13:50:03;14.05;;;4.00;;
10226;SDS011;15634;48.766;2.272;2022-11-21T13:52:34;18.37;;;4.07;;
10226;SDS011;15634;48.766;2.272;2022-11-21T13:55:17;12.75;;;3.65;;
10226;SDS011;15634;48.766;2.272;2022-11-21T13:58:00;17.58;;;4.43;;
10226;SDS011;15634;48.766;2.272;2022-11-21T14:00:34;10.75;;;3.50;;
10226;SDS011;15634;48.766;2.272;2022-11-21T14:03:34;10.27;;;3.90;;
10226;SDS011;15634;48.766;2.272;2022-11-21T14:06:13;17.88;;;3.58;;
10226;SDS011;15634;48.766;2.272;2022-11-21T14:09:03;14.40;;;3.97;;
10226;SDS011;15634;48.766;2.272;2022-11-21T14:11:31;13.10;;;3.90;;
10226;SDS011;15634;48.766;2.272;2022-11-21T14:14:01;13.13;;;4.20;;
10226;SDS011;15634;48.766;2.272;2022-11-21T14:16:29;9.63;;;4.00;;
10226;SDS011;15634;48.766;2.272;2022-11-21T14:19:01;14.95;;;3.72;;
10226;SDS011;15634;48.766;2.272;2022-11-21T14:21:29;14.13;;;4.38;;
10226;SDS011;15634;48.766;2.272;2022-11-21T14:23:57;22.17;;;7.60;;
10226;SDS011;15634;48.766;2.272;2022-11-21T14:26:28;14.32;;;4.28;;
10226;SDS011;15634;48.766;2.272;2022-11-21T14:31:43;12.68;;;4.38;;
10226;SDS011;15634;48.766;2.272;2022-11-21T14:34:12;13.73;;;4.38;;
10226;SDS011;15634;48.766;2.272;2022-11-21T14:36:38;10.55;;;3.95;;
10226;SDS011;15634;48.766;2.272;2022-11-21T14:39:07;15.73;;;4.13;;
10226;SDS011;15634;48.766;2.272;2022-11-21T14:41:34;10.45;;;3.58;;
10226;SDS011;15634;48.766;2.272;2022-11-21T14:44:03;8.75;;;3.80;;
10226;SDS011;15634;48.766;2.272;2022-11-21T14:46:41;9.10;;;4.00;;
10226;SDS011;15634;48.766;2.272;2022-11-21T14:49:08;14.05;;;5.00;;
10226;SDS011;15634;48.766;2.272;2022-11-21T14:51:45;11.68;;;4.10;;
10226;SDS011;15634;48.766;2.272;2022-11-21T14:54:13;10.98;;;3.60;;
10226;SDS011;15634;48.766;2.272;2022-11-21T14:56:42;8.82;;;3.72;;
10226;SDS011;15634;48.766;2.272;2022-11-21T14:59:13;8.25;;;3.40;;
10226;SDS011;15634;48.766;2.272;2022-11-21T15:01:53;15.23;;;5.05;;
10226;SDS011;15634;48.766;2.272;2022-11-21T15:04:24;22.50;;;8.23;;
10226;SDS011;15634;48.766;2.272;2022-11-21T15:06:52;12.00;;;5.10;;
10226;SDS011;15634;48.766;2.272;2022-11-21T15:09:19;10.20;;;3.85;;
10226;SDS011;15634;48.766;2.272;2022-11-21T15:11:46;8.73;;;3.63;;